createdAt,value
2023-03-05T00:00:20.402Z,4.06
2023-03-05T00:02:49.268Z,4.05
2023-03-05T00:05:16.943Z,4.08
2023-03-05T00:07:44.411Z,4.04
2023-03-05T00:10:12.434Z,4.02
2023-03-05T00:12:40.412Z,4.02
2023-03-05T00:15:10.768Z,4.03
2023-03-05T00:17:40.408Z,4.02
2023-03-05T00:20:10.877Z,4.01
2023-03-05T00:22:38.499Z,4.03
2023-03-05T00:25:07.079Z,4.02
2023-03-05T00:27:34.578Z,3.99
2023-03-05T00:30:03.203Z,4.01
2023-03-05T00:32:30.866Z,4.00
2023-03-05T00:34:58.800Z,3.98
2023-03-05T00:37:27.655Z,4.00
2023-03-05T00:39:55.544Z,3.99
2023-03-05T00:42:23.069Z,4.00
2023-03-05T00:44:51.367Z,3.97
2023-03-05T00:47:19.477Z,4.00
2023-03-05T00:49:47.346Z,3.96
2023-03-05T00:52:15.816Z,3.97
2023-03-05T00:54:45.055Z,3.93
2023-03-05T00:57:12.858Z,3.94
2023-03-05T00:59:40.519Z,3.93
2023-03-05T01:02:08.448Z,3.92
2023-03-05T01:04:36.834Z,3.94
2023-03-05T01:07:06.157Z,3.89
2023-03-05T01:09:35.364Z,3.85
2023-03-05T01:12:04.371Z,3.85
2023-03-05T01:14:34.553Z,3.86
2023-03-05T01:17:03.341Z,3.86
2023-03-05T01:19:31.872Z,3.85
2023-03-05T01:22:00.108Z,3.85
2023-03-05T01:24:27.626Z,3.87
2023-03-05T01:26:55.214Z,3.85
2023-03-05T01:29:24.219Z,3.83
2023-03-05T01:31:52.351Z,3.81
2023-03-05T01:34:21.232Z,3.82
2023-03-05T01:36:49.935Z,3.82
2023-03-05T01:39:17.495Z,3.84
2023-03-05T01:41:45.698Z,3.82
2023-03-05T01:44:25.383Z,3.81
2023-03-05T01:46:57.096Z,3.80
2023-03-05T01:49:27.771Z,3.82
2023-03-05T01:52:07.209Z,3.79
2023-03-05T01:54:37.730Z,3.78
2023-03-05T01:57:10.734Z,3.79
2023-03-05T01:59:42.817Z,3.82
2023-03-05T02:02:11.316Z,3.80
2023-03-05T02:04:43.516Z,3.76
2023-03-05T02:07:12.600Z,3.78
2023-03-05T02:09:40.701Z,3.78
2023-03-05T02:12:10.383Z,3.78
2023-03-05T02:14:43.415Z,3.78
2023-03-05T02:17:13.333Z,3.78
2023-03-05T02:19:52.036Z,3.76
2023-03-05T02:22:23.337Z,3.73
2023-03-05T02:24:53.306Z,3.72
2023-03-05T02:27:27.104Z,3.75
2023-03-05T02:29:55.750Z,3.75
2023-03-05T02:32:23.311Z,3.73
2023-03-05T02:34:52.946Z,3.72
2023-03-05T02:37:22.596Z,3.72
2023-03-05T02:39:52.488Z,3.67
2023-03-05T02:42:20.095Z,3.69
2023-03-05T02:44:47.771Z,3.68
2023-03-05T02:47:15.359Z,3.68
2023-03-05T02:49:43.616Z,3.70
2023-03-05T02:52:12.329Z,3.70
2023-03-05T02:55:08.404Z,3.67
2023-03-05T02:57:36.817Z,3.66
2023-03-05T03:00:05.134Z,3.63
2023-03-05T03:02:33.076Z,3.69
2023-03-05T03:05:00.585Z,3.66
2023-03-05T03:07:28.309Z,3.64
2023-03-05T03:09:58.329Z,3.66
2023-03-05T03:12:27.132Z,3.63
2023-03-05T03:14:56.339Z,3.62
2023-03-05T03:17:28.428Z,3.61
2023-03-05T03:19:57.315Z,3.62
2023-03-05T03:22:24.791Z,3.58
2023-03-05T03:24:54.320Z,3.58
2023-03-05T03:27:21.798Z,3.55
2023-03-05T03:29:51.101Z,3.54
2023-03-05T03:32:18.803Z,3.53
2023-03-05T03:34:49.345Z,3.50
2023-03-05T03:37:17.090Z,3.47
2023-03-05T03:39:44.648Z,3.46
2023-03-05T03:42:12.194Z,3.45
2023-03-05T03:44:40.337Z,3.46
2023-03-05T03:47:09.221Z,3.47
2023-03-05T03:49:37.750Z,3.46
2023-03-05T03:52:05.703Z,3.46
2023-03-05T03:54:33.879Z,3.46
2023-03-05T03:57:02.400Z,3.45
2023-03-05T03:59:30.044Z,3.44
2023-03-05T04:01:58.441Z,3.43
2023-03-05T04:04:28.916Z,3.44
2023-03-05T04:06:56.646Z,3.43
2023-03-05T04:09:27.718Z,3.43
2023-03-05T04:11:56.329Z,3.43
2023-03-05T04:14:23.803Z,3.45
2023-03-05T04:16:51.469Z,3.46
2023-03-05T04:19:19.091Z,3.44
2023-03-05T04:21:49.346Z,3.43
2023-03-05T04:24:18.393Z,3.46
2023-03-05T04:26:46.339Z,3.44
2023-03-05T04:29:13.821Z,3.40
2023-03-05T04:31:42.676Z,3.42
2023-03-05T04:34:12.417Z,3.42
2023-03-05T04:36:40.123Z,3.42
2023-03-05T04:39:09.107Z,3.42
2023-03-05T04:41:37.003Z,3.44
2023-03-05T04:44:04.942Z,3.44
2023-03-05T04:46:33.388Z,3.41
2023-03-05T04:49:01.385Z,3.41
2023-03-05T04:51:28.986Z,3.43
2023-03-05T04:53:56.567Z,3.42
2023-03-05T04:56:26.737Z,3.42
2023-03-05T04:58:54.337Z,3.42
2023-03-05T05:01:24.788Z,3.43
2023-03-05T05:03:52.366Z,3.43
2023-03-05T05:06:23.892Z,3.52
2023-03-05T05:08:51.643Z,3.42
2023-03-05T05:11:20.396Z,3.40
2023-03-05T05:13:49.468Z,3.41
2023-03-05T05:16:17.434Z,3.41
2023-03-05T05:18:45.044Z,3.44
2023-03-05T05:21:15.322Z,3.42
2023-03-05T05:23:45.834Z,3.41
2023-03-05T05:26:14.532Z,3.39
2023-03-05T05:28:43.049Z,3.41
2023-03-05T05:31:14.539Z,3.40
2023-03-05T05:33:42.417Z,3.43
2023-03-05T05:36:13.522Z,3.40
2023-03-05T05:38:42.417Z,3.39
2023-03-05T05:41:11.694Z,3.39
2023-03-05T05:43:39.326Z,3.41
2023-03-05T05:46:12.331Z,3.42
2023-03-05T05:48:41.529Z,3.34
2023-03-05T05:51:10.996Z,3.39
2023-03-05T05:53:39.497Z,3.36
2023-03-05T05:56:08.314Z,3.42
2023-03-05T05:58:35.967Z,3.36
2023-03-05T06:01:04.100Z,3.35
2023-03-05T06:03:31.771Z,3.36
2023-03-05T06:06:02.423Z,3.36
2023-03-05T06:08:32.330Z,3.35
2023-03-05T06:10:59.829Z,3.35
2023-03-05T06:13:30.709Z,3.36
2023-03-05T06:15:59.029Z,3.35
2023-03-05T06:18:26.995Z,3.33
2023-03-05T06:20:56.184Z,3.33
2023-03-05T06:23:25.603Z,3.35
2023-03-05T06:25:55.408Z,3.39
2023-03-05T06:28:22.892Z,3.38
2023-03-05T06:30:52.386Z,3.36
2023-03-05T06:33:20.401Z,3.39
2023-03-05T06:35:50.471Z,3.37
2023-03-05T06:38:18.182Z,3.35
2023-03-05T06:40:47.312Z,3.36
2023-03-05T06:43:14.872Z,3.35
2023-03-05T06:45:43.464Z,3.38
2023-03-05T06:48:12.692Z,3.38
2023-03-05T06:50:41.040Z,3.38
2023-03-05T06:53:09.805Z,3.37
2023-03-05T06:55:39.596Z,3.39
2023-03-05T06:58:09.361Z,3.38
2023-03-05T07:00:36.865Z,3.39
2023-03-05T07:03:05.074Z,3.38
2023-03-05T07:05:34.166Z,3.40
2023-03-05T07:08:04.027Z,3.41
2023-03-05T07:10:31.550Z,3.41
2023-03-05T07:13:02.418Z,3.43
2023-03-05T07:15:32.113Z,3.44
2023-03-05T07:18:01.327Z,3.42
2023-03-05T07:20:30.310Z,3.41
2023-03-05T07:22:58.025Z,3.42
2023-03-05T07:25:26.267Z,3.41
2023-03-05T07:27:54.132Z,3.43
2023-03-05T07:30:21.791Z,3.43
2023-03-05T07:32:54.409Z,3.44
2023-03-05T07:35:24.408Z,3.43
2023-03-05T07:37:54.843Z,3.44
2023-03-05T07:40:22.836Z,3.43
2023-03-05T07:42:51.459Z,3.41
2023-03-05T07:45:29.059Z,3.37
2023-03-05T07:47:58.360Z,3.38
2023-03-05T07:50:25.860Z,3.44
2023-03-05T07:52:53.707Z,3.46
2023-03-05T07:55:21.855Z,3.51
2023-03-05T07:57:49.374Z,3.51
2023-03-05T08:00:18.442Z,3.52
2023-03-05T08:02:46.057Z,3.53
2023-03-05T08:05:14.950Z,3.55
2023-03-05T08:07:42.495Z,3.59
2023-03-05T08:10:12.081Z,3.63
2023-03-05T08:12:40.667Z,3.60
2023-03-05T08:15:09.305Z,3.59
2023-03-05T08:17:37.691Z,3.58
2023-03-05T08:20:14.386Z,3.58
2023-03-05T08:22:44.144Z,3.62
2023-03-05T08:25:13.451Z,3.68
2023-03-05T08:27:43.430Z,3.71
2023-03-05T08:30:14.344Z,3.66
2023-03-05T08:32:41.915Z,3.71
2023-03-05T08:35:12.376Z,3.67
2023-03-05T08:37:39.923Z,3.74
2023-03-05T08:40:11.041Z,3.79
2023-03-05T08:42:38.578Z,3.83
2023-03-05T08:45:07.006Z,3.86
2023-03-05T08:47:34.661Z,3.91
2023-03-05T08:50:02.216Z,3.96
2023-03-05T08:52:29.745Z,4.08
2023-03-05T08:54:57.507Z,4.15
2023-03-05T08:57:27.339Z,4.20
2023-03-05T08:59:56.706Z,4.25
2023-03-05T09:02:24.395Z,4.26
2023-03-05T09:04:52.167Z,4.35
2023-03-05T09:07:19.753Z,4.35
2023-03-05T09:09:47.427Z,4.36
2023-03-05T09:12:16.361Z,4.41
2023-03-05T09:14:45.231Z,4.42
2023-03-05T09:17:16.324Z,4.38
2023-03-05T09:19:43.897Z,4.44
2023-03-05T09:22:11.450Z,4.45
2023-03-05T09:24:40.711Z,4.54
2023-03-05T09:27:08.456Z,4.55
2023-03-05T09:29:36.336Z,4.64
2023-03-05T09:32:05.474Z,4.55
2023-03-05T09:34:34.501Z,4.60
2023-03-05T09:37:02.798Z,4.60
2023-03-05T09:39:31.353Z,4.73
2023-03-05T09:42:23.283Z,4.75
2023-03-05T09:45:04.523Z,4.78
2023-03-05T09:47:52.790Z,4.77
2023-03-05T09:50:34.323Z,4.76
2023-03-05T09:53:08.399Z,4.79
2023-03-05T09:55:40.280Z,4.80
2023-03-05T09:58:14.356Z,4.83
2023-03-05T10:00:45.106Z,4.88
2023-03-05T10:03:22.881Z,4.91
2023-03-05T10:06:02.420Z,4.92
2023-03-05T10:08:45.724Z,5.01
2023-03-05T10:11:34.409Z,5.08
2023-03-05T10:14:03.660Z,5.13
2023-03-05T10:17:07.385Z,5.20
2023-03-05T10:20:05.245Z,5.24
2023-03-05T10:22:39.151Z,5.34
2023-03-05T10:25:20.366Z,5.40
2023-03-05T10:27:54.277Z,5.45
2023-03-05T10:30:55.038Z,5.51
2023-03-05T10:33:33.712Z,5.54
2023-03-05T10:36:24.175Z,5.56
2023-03-05T10:39:12.544Z,5.49
2023-03-05T10:41:49.893Z,5.48
2023-03-05T10:44:25.592Z,5.47
2023-03-05T10:46:55.178Z,5.48
2023-03-05T10:49:30.398Z,5.51
2023-03-05T10:52:08.786Z,5.48
2023-03-05T10:54:41.639Z,5.50
2023-03-05T10:57:19.347Z,5.57
2023-03-05T10:59:51.392Z,5.51
2023-03-05T11:02:21.653Z,5.55
2023-03-05T11:04:50.085Z,5.51
2023-03-05T11:07:38.037Z,5.55
2023-03-05T11:10:21.197Z,5.52
2023-03-05T11:12:54.346Z,5.53
2023-03-05T11:15:30.160Z,5.50
2023-03-05T11:18:17.930Z,5.48
2023-03-05T11:20:46.392Z,5.44
2023-03-05T11:23:18.308Z,5.44
2023-03-05T11:25:53.482Z,5.45
2023-03-05T11:28:32.885Z,5.47
2023-03-05T11:31:20.668Z,5.47
2023-03-05T11:33:57.336Z,5.54
2023-03-05T11:36:27.477Z,5.49
2023-03-05T11:38:59.654Z,5.57
2023-03-05T11:41:37.129Z,5.52
2023-03-05T11:44:13.572Z,5.55
2023-03-05T11:46:44.231Z,5.55
2023-03-05T11:49:17.331Z,5.66
2023-03-05T11:51:49.794Z,5.69
2023-03-05T11:54:24.392Z,5.71
2023-03-05T11:56:52.837Z,5.78
2023-03-05T11:59:26.697Z,5.85
2023-03-05T12:01:56.579Z,5.86
2023-03-05T12:04:25.421Z,5.91
2023-03-05T12:06:57.217Z,5.92
2023-03-05T12:09:34.717Z,5.97
2023-03-05T12:12:10.630Z,5.95
2023-03-05T12:14:45.092Z,5.96
2023-03-05T12:17:19.752Z,6.03
2023-03-05T12:19:54.454Z,6.04
2023-03-05T12:22:24.316Z,6.08
2023-03-05T12:24:54.411Z,6.09
2023-03-05T12:27:36.922Z,6.11
2023-03-05T12:30:06.067Z,6.15
2023-03-05T12:33:00.909Z,6.21
2023-03-05T12:35:38.603Z,6.20
2023-03-05T12:38:26.687Z,6.23
2023-03-05T12:41:43.032Z,6.21
2023-03-05T12:44:23.581Z,6.28
2023-03-05T12:47:23.264Z,6.31
2023-03-05T12:49:50.958Z,6.32
2023-03-05T12:52:27.626Z,6.34
2023-03-05T12:55:01.960Z,6.34
2023-03-05T12:57:31.273Z,6.36
2023-03-05T13:00:06.000Z,6.39
2023-03-05T13:02:37.145Z,6.46
2023-03-05T13:05:15.920Z,6.41
2023-03-05T13:08:07.932Z,6.35
2023-03-05T13:10:36.336Z,6.34
2023-03-05T13:13:04.169Z,6.37
2023-03-05T13:15:34.415Z,6.44
2023-03-05T13:18:08.296Z,6.45
2023-03-05T13:20:39.386Z,6.42
2023-03-05T13:23:23.510Z,6.57
2023-03-05T13:25:59.858Z,6.50
2023-03-05T13:28:28.258Z,6.47
2023-03-05T13:30:59.459Z,6.48
2023-03-05T13:33:30.107Z,6.59
2023-03-05T13:35:58.102Z,6.48
2023-03-05T13:38:30.810Z,6.46
2023-03-05T13:41:09.010Z,6.50
2023-03-05T13:43:44.138Z,6.51
2023-03-05T13:46:13.718Z,6.54
2023-03-05T13:48:41.497Z,6.58
2023-03-05T13:51:11.822Z,6.66
2023-03-05T13:53:43.351Z,6.70
2023-03-05T13:56:15.854Z,6.75
2023-03-05T13:58:50.626Z,6.75
2023-03-05T14:01:43.669Z,6.75
2023-03-05T14:04:21.394Z,6.78
2023-03-05T14:06:52.937Z,6.83
2023-03-05T14:09:23.475Z,6.89
2023-03-05T14:11:56.923Z,6.86
2023-03-05T14:14:26.109Z,6.86
2023-03-05T14:16:55.173Z,6.90
2023-03-05T14:19:36.510Z,6.97
2023-03-05T14:22:06.823Z,6.98
2023-03-05T14:24:34.803Z,7.00
2023-03-05T14:27:08.669Z,7.05
2023-03-05T14:29:37.387Z,7.06
2023-03-05T14:32:10.502Z,7.13
2023-03-05T14:34:43.664Z,7.14
2023-03-05T14:37:24.454Z,7.16
2023-03-05T14:39:55.476Z,7.20
2023-03-05T14:42:32.352Z,7.15
2023-03-05T14:45:02.023Z,7.16
2023-03-05T14:47:31.282Z,7.16
2023-03-05T14:49:58.753Z,7.16
2023-03-05T14:52:26.829Z,7.14
2023-03-05T14:54:55.739Z,7.13
2023-03-05T14:57:29.115Z,7.11
2023-03-05T14:59:56.729Z,7.11
2023-03-05T15:02:27.017Z,7.09
2023-03-05T15:04:56.442Z,7.08
2023-03-05T15:07:30.177Z,7.05
2023-03-05T15:10:00.677Z,7.06
2023-03-05T15:12:28.331Z,7.06
2023-03-05T15:15:01.347Z,7.04
2023-03-05T15:17:35.342Z,7.03
2023-03-05T15:20:09.979Z,7.05
2023-03-05T15:22:38.289Z,7.01
2023-03-05T15:25:06.874Z,6.99
2023-03-05T15:27:36.350Z,7.06
2023-03-05T15:30:04.487Z,7.00
2023-03-05T15:32:32.844Z,6.97
2023-03-05T15:35:00.892Z,6.92
2023-03-05T15:37:29.776Z,6.88
2023-03-05T15:39:57.390Z,6.86
2023-03-05T15:42:25.816Z,6.84
2023-03-05T15:44:54.350Z,6.85
2023-03-05T15:47:22.431Z,6.85
2023-03-05T15:49:51.425Z,6.88
2023-03-05T15:52:19.349Z,6.89
2023-03-05T15:54:48.223Z,6.85
2023-03-05T15:57:15.733Z,6.84
2023-03-05T15:59:43.383Z,6.87
2023-03-05T16:02:10.929Z,6.83
2023-03-05T16:04:39.354Z,6.82
2023-03-05T16:07:07.472Z,6.78
2023-03-05T16:09:39.138Z,6.71
2023-03-05T16:12:13.220Z,6.67
2023-03-05T16:14:42.297Z,6.66
2023-03-05T16:17:10.092Z,6.64
2023-03-05T16:19:41.396Z,6.59
2023-03-05T16:22:09.891Z,6.54
2023-03-05T16:24:39.403Z,6.59
2023-03-05T16:27:10.511Z,6.50
2023-03-05T16:29:38.256Z,6.43
2023-03-05T16:32:07.141Z,6.41
2023-03-05T16:34:35.436Z,6.40
2023-03-05T16:37:04.536Z,6.38
2023-03-05T16:39:32.298Z,6.41
2023-03-05T16:42:00.706Z,6.34
2023-03-05T16:44:29.612Z,6.24
2023-03-05T16:46:57.207Z,6.25
2023-03-05T16:49:24.822Z,6.20
2023-03-05T16:51:52.408Z,6.13
2023-03-05T16:54:22.848Z,6.06
2023-03-05T16:56:50.417Z,6.02
2023-03-05T16:59:17.985Z,6.01
2023-03-05T17:01:47.418Z,6.00
2023-03-05T17:04:15.085Z,5.99
2023-03-05T17:06:45.941Z,5.96
2023-03-05T17:09:13.789Z,5.95
2023-03-05T17:11:41.401Z,5.93
2023-03-05T17:14:09.428Z,5.93
2023-03-05T17:16:37.112Z,5.89
2023-03-05T17:19:05.980Z,5.87
2023-03-05T17:21:33.495Z,5.84
2023-03-05T17:24:01.107Z,5.81
2023-03-05T17:26:28.779Z,5.82
2023-03-05T17:28:56.740Z,5.78
2023-03-05T17:31:24.283Z,5.74
2023-03-05T17:33:52.354Z,5.72
2023-03-05T17:36:24.351Z,5.69
2023-03-05T17:38:52.639Z,5.69
2023-03-05T17:41:21.361Z,5.67
2023-03-05T17:43:48.908Z,5.65
2023-03-05T17:46:17.323Z,5.63
2023-03-05T17:48:46.038Z,5.62
2023-03-05T17:51:16.214Z,5.60
2023-03-05T17:53:45.883Z,5.60
2023-03-05T17:56:17.084Z,5.58
2023-03-05T17:58:45.420Z,5.56
2023-03-05T18:01:12.965Z,5.50
2023-03-05T18:03:40.709Z,5.47
2023-03-05T18:06:08.284Z,5.48
2023-03-05T18:08:36.432Z,5.45
2023-03-05T18:11:05.548Z,5.45
2023-03-05T18:13:33.910Z,5.44
2023-03-05T18:16:01.971Z,5.45
2023-03-05T18:18:30.405Z,5.39
2023-03-05T18:20:57.921Z,5.38
2023-03-05T18:23:25.484Z,5.36
2023-03-05T18:25:53.276Z,5.36
2023-03-05T18:28:22.140Z,5.33
2023-03-05T18:30:49.703Z,5.32
2023-03-05T18:33:19.914Z,5.29
2023-03-05T18:35:49.519Z,5.27
2023-03-05T18:38:17.294Z,5.26
2023-03-05T18:40:46.300Z,5.23
2023-03-05T18:43:17.079Z,5.21
2023-03-05T18:45:47.481Z,5.20
2023-03-05T18:48:15.350Z,5.18
2023-03-05T18:50:44.405Z,5.19
2023-03-05T18:53:13.668Z,5.13
2023-03-05T18:55:42.606Z,5.13
2023-03-05T18:58:13.968Z,5.08
2023-03-05T19:00:43.626Z,5.08
2023-03-05T19:03:13.036Z,5.06
2023-03-05T19:05:41.587Z,5.06
2023-03-05T19:08:09.213Z,5.04
2023-03-05T19:10:36.788Z,5.03
2023-03-05T19:13:18.525Z,5.03
2023-03-05T19:15:46.089Z,5.01
2023-03-05T19:18:14.938Z,4.99
2023-03-05T19:20:42.456Z,4.99
2023-03-05T19:23:10.019Z,4.96
2023-03-05T19:25:37.506Z,4.96
2023-03-05T19:28:05.175Z,4.94
2023-03-05T19:30:32.659Z,4.93
2023-03-05T19:33:00.450Z,4.92
2023-03-05T19:35:29.423Z,4.90
2023-03-05T19:37:57.284Z,4.88
2023-03-05T19:40:25.170Z,4.87
2023-03-05T19:42:52.724Z,4.86
2023-03-05T19:45:20.269Z,4.84
2023-03-05T19:47:47.783Z,4.82
2023-03-05T19:50:16.764Z,4.81
2023-03-05T19:52:45.647Z,4.78
2023-03-05T19:55:13.913Z,4.78
2023-03-05T19:57:41.397Z,4.77
2023-03-05T20:00:10.444Z,4.74
2023-03-05T20:02:37.954Z,4.73
2023-03-05T20:05:06.026Z,4.71
2023-03-05T20:07:33.536Z,4.69
2023-03-05T20:10:02.427Z,4.67
2023-03-05T20:12:31.168Z,4.65
2023-03-05T20:14:59.425Z,4.63
2023-03-05T20:17:27.096Z,4.62
2023-03-05T20:19:58.740Z,4.61
2023-03-05T20:22:26.393Z,4.59
2023-03-05T20:24:53.878Z,4.55
2023-03-05T20:27:23.092Z,4.55
2023-03-05T20:29:50.625Z,4.54
2023-03-05T20:32:18.740Z,4.51
2023-03-05T20:34:46.252Z,4.50
2023-03-05T20:37:14.366Z,4.48
2023-03-05T20:39:42.080Z,4.47
2023-03-05T20:42:11.363Z,4.46
2023-03-05T20:44:40.163Z,4.44
2023-03-05T20:47:23.552Z,4.42
2023-03-05T20:49:55.102Z,4.40
2023-03-05T20:52:22.609Z,4.38
2023-03-05T20:54:50.294Z,4.36
2023-03-05T20:57:19.789Z,4.35
2023-03-05T20:59:49.347Z,4.34
2023-03-05T21:02:18.200Z,4.31
2023-03-05T21:04:45.774Z,4.27
2023-03-05T21:07:15.842Z,4.24
2023-03-05T21:09:43.466Z,4.21
2023-03-05T21:12:11.616Z,4.19
2023-03-05T21:14:40.663Z,4.18
2023-03-05T21:17:09.702Z,4.18
2023-03-05T21:19:39.158Z,4.16
2023-03-05T21:22:08.385Z,4.14
2023-03-05T21:24:51.891Z,4.14
2023-03-05T21:27:19.529Z,4.12
2023-03-05T21:29:47.010Z,4.11
2023-03-05T21:32:16.174Z,4.08
2023-03-05T21:34:43.982Z,4.08
2023-03-05T21:37:12.050Z,4.07
2023-03-05T21:39:39.525Z,4.06
2023-03-05T21:42:07.183Z,4.04
2023-03-05T21:44:34.831Z,4.02
2023-03-05T21:47:02.840Z,4.04
2023-03-05T21:49:31.694Z,4.01
2023-03-05T21:52:08.846Z,4.00
2023-03-05T21:54:36.966Z,3.99
2023-03-05T21:57:05.439Z,3.98
2023-03-05T21:59:33.056Z,3.97
2023-03-05T22:02:00.648Z,3.95
2023-03-05T22:04:28.236Z,3.93
2023-03-05T22:06:57.626Z,3.93
2023-03-05T22:09:26.422Z,3.90
2023-03-05T22:11:54.707Z,3.89
2023-03-05T22:14:22.295Z,3.90
2023-03-05T22:16:53.065Z,3.86
2023-03-05T22:19:20.814Z,3.84
2023-03-05T22:21:49.057Z,3.83
2023-03-05T22:24:18.412Z,3.82
2023-03-05T22:26:46.716Z,3.81
2023-03-05T22:29:16.865Z,3.80
2023-03-05T22:31:45.378Z,3.78
2023-03-05T22:34:12.892Z,3.78
2023-03-05T22:36:40.417Z,3.76
2023-03-05T22:39:08.892Z,3.74
2023-03-05T22:41:37.764Z,3.74
2023-03-05T22:44:06.336Z,3.72
2023-03-05T22:46:34.047Z,3.71
2023-03-05T22:49:01.584Z,3.70
2023-03-05T22:51:29.161Z,3.68
2023-03-05T22:53:56.835Z,3.68
2023-03-05T22:56:24.312Z,3.67
2023-03-05T22:58:55.366Z,3.66
2023-03-05T23:01:26.495Z,3.65
2023-03-05T23:03:58.771Z,3.62
2023-03-05T23:06:28.434Z,3.62
2023-03-05T23:08:56.725Z,3.60
2023-03-05T23:11:24.235Z,3.58
2023-03-05T23:13:51.760Z,3.58
2023-03-05T23:16:20.587Z,3.57
2023-03-05T23:18:48.113Z,3.57
2023-03-05T23:21:17.431Z,3.56
2023-03-05T23:23:44.971Z,3.55
2023-03-05T23:26:13.632Z,3.54
2023-03-05T23:28:41.134Z,3.54
2023-03-05T23:31:08.690Z,3.53
2023-03-05T23:33:39.086Z,3.52
2023-03-05T23:36:10.599Z,3.51
2023-03-05T23:38:38.125Z,3.51
2023-03-05T23:41:09.310Z,3.52
2023-03-05T23:43:37.347Z,3.51
2023-03-05T23:46:11.560Z,3.50
2023-03-05T23:48:42.004Z,3.49
2023-03-05T23:51:10.858Z,3.49
2023-03-05T23:53:38.889Z,3.48
2023-03-05T23:56:10.888Z,3.47
2023-03-05T23:58:40.385Z,3.46
